Time;durP1;ratioP1;P1;durP2;ratioP2;P2;SDS_P1;SDS_P2;PMS_P1;PMS_P2;Temp;Humidity;BMP_temperature;BMP_pressure;BME280_temperature;BME280_humidity;BME280_pressure;Samples;Min_cycle;Max_cycle;Signal;HPM_P1;HPM_P2
2022/03/07 00:01:06;;;;;;;16.88;3.95;;;24.70;99.90;;;;;;5015015;28;20049;-70
2022/03/07 00:03:34;;;;;;;21.25;4.93;;;24.80;99.90;;;;;;5015439;28;20018;-73
2022/03/07 00:06:01;;;;;;;21.23;4.63;;;24.80;99.90;;;;;;5015879;28;20018;-72
2022/03/07 00:08:29;;;;;;;13.23;3.30;;;24.70;99.90;;;;;;5015559;28;20113;-68
2022/03/07 00:10:56;;;;;;;18.02;4.40;;;24.60;99.90;;;;;;5015220;28;20076;-67
2022/03/07 00:13:24;;;;;;;16.48;3.60;;;24.60;99.90;;;;;;5015286;28;20046;-69
2022/03/07 00:15:51;;;;;;;11.77;3.60;;;24.60;99.90;;;;;;5014878;28;20030;-71
2022/03/07 00:18:18;;;;;;;21.55;3.75;;;24.50;99.90;;;;;;5013351;28;20034;-70
2022/03/07 00:20:46;;;;;;;18.08;2.95;;;24.40;99.90;;;;;;5014516;28;20049;-74
2022/03/07 00:23:15;;;;;;;15.27;4.05;;;24.40;99.90;;;;;;5014384;28;20054;-71
2022/03/07 00:25:42;;;;;;;16.00;3.05;;;24.30;99.90;;;;;;5014438;28;20105;-71
2022/03/07 00:28:09;;;;;;;20.33;3.47;;;24.30;99.90;;;;;;5014654;28;20042;-68
2022/03/07 00:30:37;;;;;;;14.88;4.20;;;24.20;99.90;;;;;;5014609;28;20447;-68
2022/03/07 00:33:05;;;;;;;12.98;3.75;;;24.20;99.90;;;;;;5014720;28;20064;-68
2022/03/07 00:35:32;;;;;;;12.93;3.20;;;24.10;99.90;;;;;;5014125;28;20022;-70
2022/03/07 00:37:59;;;;;;;18.25;3.80;;;24.10;99.90;;;;;;5014021;28;20029;-68
2022/03/07 00:40:27;;;;;;;16.75;3.53;;;24.00;99.90;;;;;;5014053;28;20022;-70
2022/03/07 00:42:54;;;;;;;13.95;3.53;;;24.10;99.90;;;;;;5013825;28;20030;-71
2022/03/07 00:45:21;;;;;;;14.95;3.47;;;24.10;99.90;;;;;;5013816;28;20137;-71
2022/03/07 00:47:49;;;;;;;13.20;2.75;;;24.10;99.90;;;;;;5014103;28;20014;-69
2022/03/07 00:50:16;;;;;;;13.45;2.60;;;24.10;99.90;;;;;;5013742;28;20026;-68
2022/03/07 00:52:44;;;;;;;10.23;2.20;;;24.00;99.90;;;;;;5013817;28;20109;-70
2022/03/07 00:55:11;;;;;;;7.47;2.58;;;24.00;99.90;;;;;;5014067;28;20018;-68
2022/03/07 00:57:38;;;;;;;17.55;3.28;;;24.00;99.90;;;;;;5013931;28;20434;-70
2022/03/07 01:00:06;;;;;;;12.05;2.75;;;23.90;99.90;;;;;;5014071;28;20520;-69
2022/03/07 01:02:34;;;;;;;10.05;2.15;;;23.90;99.90;;;;;;5013663;28;20037;-71
2022/03/07 01:05:01;;;;;;;12.73;2.20;;;23.80;99.90;;;;;;5013588;28;20050;-68
2022/03/07 01:07:29;;;;;;;13.07;3.13;;;23.80;99.90;;;;;;5013523;28;20025;-71
2022/03/07 01:09:56;;;;;;;7.93;1.85;;;23.80;99.90;;;;;;5011752;28;20072;-69
2022/03/07 01:12:23;;;;;;;10.52;2.03;;;23.80;99.90;;;;;;5013493;28;20018;-70
2022/03/07 01:14:51;;;;;;;10.98;2.00;;;23.70;99.90;;;;;;5013975;28;20022;-67
2022/03/07 01:17:18;;;;;;;10.95;2.00;;;23.80;99.90;;;;;;5013889;28;20474;-67
2022/03/07 01:19:45;;;;;;;10.57;1.88;;;23.80;99.90;;;;;;5013517;28;20042;-68
2022/03/07 01:22:15;;;;;;;11.68;3.10;;;23.90;99.90;;;;;;5013523;28;20022;-72
2022/03/07 01:24:42;;;;;;;10.93;2.40;;;23.90;99.90;;;;;;5013285;28;20098;-70
2022/03/07 01:27:10;;;;;;;9.85;2.60;;;23.90;99.90;;;;;;5013422;28;20025;-73
2022/03/07 01:29:37;;;;;;;10.82;2.00;;;23.90;99.90;;;;;;5013598;28;20101;-67
2022/03/07 01:32:05;;;;;;;7.82;2.00;;;23.90;99.90;;;;;;5013502;28;20026;-74
2022/03/07 01:34:32;;;;;;;7.28;1.80;;;23.90;99.90;;;;;;5013727;28;20076;-74
2022/03/07 01:36:59;;;;;;;8.77;2.47;;;23.90;99.90;;;;;;5012190;28;20033;-72
2022/03/07 01:39:26;;;;;;;10.05;1.90;;;24.10;99.90;;;;;;5013151;28;20065;-72
2022/03/07 01:41:54;;;;;;;12.40;2.92;;;24.20;99.90;;;;;;5013378;28;20018;-74
2022/03/07 01:44:24;;;;;;;11.15;3.40;;;24.30;99.90;;;;;;5013822;28;20033;-72
2022/03/07 01:46:51;;;;;;;7.28;2.25;;;24.40;99.90;;;;;;5013012;28;20093;-70
2022/03/07 01:49:20;;;;;;;10.43;2.25;;;24.50;99.90;;;;;;5012877;28;20095;-69
2022/03/07 01:51:48;;;;;;;8.38;2.67;;;24.70;99.90;;;;;;5013706;28;20018;-78
2022/03/07 01:54:18;;;;;;;8.35;2.58;;;24.90;99.90;;;;;;5013280;28;20033;-68
2022/03/07 01:56:47;;;;;;;10.35;2.90;;;25.00;99.90;;;;;;5013504;28;20513;-73
2022/03/07 01:59:19;;;;;;;10.95;2.92;;;25.30;99.90;;;;;;5013236;28;20044;-69
2022/03/07 02:01:49;;;;;;;9.68;2.50;;;25.40;99.90;;;;;;5013596;28;20029;-69
2022/03/07 02:04:17;;;;;;;11.68;2.85;;;25.50;99.90;;;;;;5013886;28;20080;-69
2022/03/07 02:06:48;;;;;;;10.88;3.03;;;25.70;99.90;;;;;;5014249;28;20049;-70
2022/03/07 02:09:17;;;;;;;12.73;3.53;;;25.80;99.90;;;;;;5011989;28;20060;-68
2022/03/07 02:11:45;;;;;;;14.50;2.75;;;25.90;99.90;;;;;;5013053;28;20018;-70
2022/03/07 02:14:25;;;;;;;14.50;3.40;;;25.90;99.90;;;;;;5013047;28;20034;-71
2022/03/07 02:16:53;;;;;;;15.85;3.28;;;25.90;99.90;;;;;;5014463;28;20056;-70
2022/03/07 02:19:20;;;;;;;17.88;3.20;;;25.90;99.90;;;;;;5012259;28;20030;-67
2022/03/07 02:21:49;;;;;;;18.25;3.75;;;25.90;99.90;;;;;;5012420;28;20101;-69
2022/03/07 02:24:21;;;;;;;12.98;3.45;;;25.90;99.90;;;;;;5012550;28;20596;-70
2022/03/07 02:27:05;;;;;;;17.42;4.03;;;25.90;99.90;;;;;;5012601;28;20087;-68
2022/03/07 02:29:33;;;;;;;13.25;3.45;;;25.90;99.90;;;;;;5012289;28;20026;-78
2022/03/07 02:32:01;;;;;;;11.75;3.10;;;25.90;99.90;;;;;;5011189;28;20022;-68
2022/03/07 02:34:29;;;;;;;17.45;3.67;;;25.80;99.90;;;;;;5012388;28;20427;-73
2022/03/07 02:37:00;;;;;;;19.55;4.10;;;25.70;99.90;;;;;;5010795;28;20441;-68
2022/03/07 02:39:27;;;;;;;14.55;3.95;;;25.70;99.90;;;;;;5012002;28;20109;-73
2022/03/07 02:41:55;;;;;;;12.45;3.38;;;25.70;99.90;;;;;;5012159;28;20105;-70
2022/03/07 02:44:23;;;;;;;11.63;2.70;;;25.70;99.90;;;;;;5012502;28;20021;-68
2022/03/07 02:46:51;;;;;;;12.50;2.70;;;25.90;99.90;;;;;;5012409;28;20053;-73
2022/03/07 02:49:21;;;;;;;13.15;2.38;;;26.10;99.90;;;;;;5012320;28;20038;-76
2022/03/07 02:51:50;;;;;;;14.07;2.53;;;26.30;99.90;;;;;;5012171;28;20024;-69
2022/03/07 02:54:17;;;;;;;11.45;2.20;;;26.50;99.90;;;;;;5011955;28;20026;-69
2022/03/07 02:56:47;;;;;;;16.92;3.00;;;26.60;99.90;;;;;;5011761;28;20108;-69
2022/03/07 02:59:20;;;;;;;11.18;2.97;;;26.70;99.90;;;;;;5010754;28;20509;-70
2022/03/07 03:01:48;;;;;;;19.48;4.20;;;26.90;99.90;;;;;;5011949;28;20030;-76
2022/03/07 03:04:17;;;;;;;18.23;3.22;;;26.90;99.90;;;;;;5011618;28;20022;-69
2022/03/07 03:06:44;;;;;;;13.93;3.15;;;26.80;99.90;;;;;;5011762;28;20017;-70
2022/03/07 03:09:11;;;;;;;15.27;3.78;;;26.70;99.90;;;;;;5011601;28;20056;-75
2022/03/07 03:11:40;;;;;;;13.55;3.90;;;26.90;99.90;;;;;;5012034;28;20452;-68
2022/03/07 03:14:20;;;;;;;16.17;4.50;;;26.90;99.90;;;;;;5011820;28;20037;-68
2022/03/07 03:16:52;;;;;;;14.90;3.63;;;26.80;99.90;;;;;;5011946;28;20033;-69
2022/03/07 03:19:20;;;;;;;17.27;4.63;;;26.70;99.90;;;;;;5011932;28;20076;-68
2022/03/07 03:21:48;;;;;;;19.48;4.60;;;26.60;99.90;;;;;;5012172;28;20030;-74
2022/03/07 03:24:15;;;;;;;18.70;2.85;;;26.40;99.90;;;;;;5010869;28;20096;-73
2022/03/07 03:26:42;;;;;;;17.00;3.58;;;26.30;99.90;;;;;;5010279;28;20026;-70
2022/03/07 03:29:10;;;;;;;14.43;3.47;;;26.30;99.90;;;;;;5011751;28;20029;-73
2022/03/07 03:31:37;;;;;;;15.88;2.85;;;26.60;99.90;;;;;;5015022;28;20046;-70
2022/03/07 03:34:06;;;;;;;15.90;3.00;;;27.30;99.90;;;;;;5015394;28;20437;-69
2022/03/07 03:36:34;;;;;;;14.10;3.45;;;27.70;99.90;;;;;;5015424;28;20545;-69
2022/03/07 03:39:02;;;;;;;16.33;2.25;;;28.00;99.90;;;;;;5015626;28;20065;-72
2022/03/07 03:41:31;;;;;;;13.27;2.63;;;28.50;99.90;;;;;;5014343;28;20026;-69
2022/03/07 03:43:59;;;;;;;17.33;2.85;;;28.60;99.90;;;;;;5014558;28;20029;-71
2022/03/07 03:46:26;;;;;;;18.48;3.55;;;28.50;99.90;;;;;;5015500;28;20084;-69
2022/03/07 03:48:54;;;;;;;14.43;3.17;;;28.50;99.90;;;;;;5014990;28;20038;-74
2022/03/07 03:51:21;;;;;;;12.70;2.33;;;28.30;99.90;;;;;;5015147;28;20501;-73
2022/03/07 03:53:48;;;;;;;16.58;2.85;;;28.10;99.90;;;;;;5014956;28;20034;-74
2022/03/07 03:56:16;;;;;;;17.92;3.22;;;28.00;99.90;;;;;;5014960;28;20022;-69
2022/03/07 03:58:44;;;;;;;18.58;3.60;;;27.90;99.90;;;;;;5015035;28;20026;-71
2022/03/07 04:01:12;;;;;;;13.80;3.85;;;27.80;99.90;;;;;;5014814;28;20113;-74
2022/03/07 04:03:40;;;;;;;20.77;4.68;;;27.60;99.90;;;;;;5013769;28;20493;-74
2022/03/07 04:06:08;;;;;;;14.82;3.33;;;27.40;99.90;;;;;;5015428;28;20025;-71
2022/03/07 04:08:37;;;;;;;14.60;2.90;;;27.30;99.90;;;;;;5015106;28;20128;-72
2022/03/07 04:11:05;;;;;;;14.38;3.45;;;27.50;99.90;;;;;;5013801;28;20037;-69
2022/03/07 04:13:35;;;;;;;14.70;3.10;;;28.30;99.90;;;;;;5014090;28;20037;-73
2022/03/07 04:16:03;;;;;;;15.50;2.72;;;29.20;99.90;;;;;;5014225;28;20075;-74
2022/03/07 04:18:30;;;;;;;13.52;2.22;;;29.50;99.90;;;;;;5014720;28;20026;-69
2022/03/07 04:20:57;;;;;;;11.30;3.00;;;29.30;99.90;;;;;;5013640;28;20064;-76
2022/03/07 04:23:25;;;;;;;9.25;2.05;;;29.40;99.90;;;;;;5014739;28;20109;-73
2022/03/07 04:25:53;;;;;;;15.50;3.00;;;29.10;99.90;;;;;;5013884;28;20038;-70
2022/03/07 04:28:21;;;;;;;14.20;3.47;;;28.80;99.90;;;;;;5014339;28;20064;-73
2022/03/07 04:30:48;;;;;;;15.05;2.78;;;28.50;99.90;;;;;;5014060;28;20030;-70
2022/03/07 04:33:15;;;;;;;15.00;3.67;;;28.10;99.90;;;;;;5015867;28;20080;-73
2022/03/07 04:35:43;;;;;;;15.98;3.08;;;27.90;99.90;;;;;;5014000;28;20029;-71
2022/03/07 04:38:10;;;;;;;13.27;2.17;;;27.80;99.90;;;;;;5015096;28;20030;-72
2022/03/07 04:40:37;;;;;;;16.92;2.35;;;27.60;99.90;;;;;;5014070;28;20156;-84
2022/03/07 04:43:05;;;;;;;16.55;3.17;;;27.60;99.90;;;;;;5014576;28;20098;-74
2022/03/07 04:45:32;;;;;;;13.90;3.03;;;27.50;99.90;;;;;;5014844;28;20091;-68
2022/03/07 04:48:04;;;;;;;16.10;2.58;;;27.40;99.90;;;;;;5014512;28;20029;-70
2022/03/07 04:50:31;;;;;;;20.40;3.05;;;27.40;99.90;;;;;;5013972;28;20026;-81
2022/03/07 04:52:58;;;;;;;15.18;3.67;;;27.40;99.90;;;;;;5014195;28;20514;-81
2022/03/07 04:55:25;;;;;;;16.67;3.13;;;27.60;99.90;;;;;;5014185;28;20049;-73
2022/03/07 04:57:58;;;;;;;16.75;2.75;;;27.80;99.90;;;;;;5015196;28;20022;-74
2022/03/07 05:00:27;;;;;;;14.30;3.22;;;28.20;99.90;;;;;;5014258;28;20041;-72
2022/03/07 05:02:54;;;;;;;10.70;2.42;;;28.50;99.90;;;;;;5011474;28;20366;-67
2022/03/07 05:05:24;;;;;;;17.10;2.97;;;28.80;99.90;;;;;;5010354;28;20418;-78
2022/03/07 05:07:54;;;;;;;12.07;1.40;;;28.90;99.90;;;;;;5014350;28;20022;-73
2022/03/07 05:10:22;;;;;;;15.63;3.13;;;29.00;99.90;;;;;;5013400;28;20486;-70
2022/03/07 05:12:52;;;;;;;16.77;2.92;;;29.00;99.90;;;;;;5013346;28;20545;-71
2022/03/07 05:15:20;;;;;;;13.40;2.45;;;28.80;99.90;;;;;;5013605;28;20022;-74
2022/03/07 05:17:53;;;;;;;11.70;2.55;;;28.60;99.90;;;;;;5012245;28;20029;-69
2022/03/07 05:20:22;;;;;;;12.45;2.60;;;28.40;99.90;;;;;;5012153;28;20042;-82
2022/03/07 05:22:49;;;;;;;15.50;3.47;;;28.20;99.90;;;;;;5013702;28;20030;-81
2022/03/07 05:25:18;;;;;;;16.48;2.15;;;28.00;99.90;;;;;;5013468;28;20157;-71
2022/03/07 05:27:45;;;;;;;10.68;1.90;;;27.90;99.90;;;;;;5013393;28;20734;-77
2022/03/07 05:30:16;;;;;;;11.50;2.70;;;27.80;99.90;;;;;;5013276;28;20097;-68
2022/03/07 05:32:50;;;;;;;12.10;2.25;;;27.70;99.90;;;;;;5013162;28;20033;-82
2022/03/07 05:35:19;;;;;;;15.25;3.55;;;27.50;99.90;;;;;;5012822;28;20474;-71
2022/03/07 05:37:46;;;;;;;10.70;2.22;;;27.40;99.90;;;;;;5011601;28;20113;-68
2022/03/07 05:40:15;;;;;;;12.88;3.10;;;27.40;99.90;;;;;;5008016;28;20393;-69
2022/03/07 05:42:46;;;;;;;18.05;2.97;;;27.40;99.90;;;;;;5010562;28;20084;-70
2022/03/07 05:45:14;;;;;;;24.55;4.13;;;27.30;99.90;;;;;;5012695;28;20030;-70
2022/03/07 05:47:43;;;;;;;19.55;3.75;;;27.30;99.90;;;;;;5013182;28;20486;-67
2022/03/07 05:50:11;;;;;;;21.67;6.22;;;27.30;99.90;;;;;;5012953;28;20044;-72
2022/03/07 05:52:39;;;;;;;16.98;4.07;;;27.20;99.90;;;;;;5009371;28;20026;-77
2022/03/07 05:55:08;;;;;;;18.65;3.20;;;27.10;99.90;;;;;;5010427;28;20116;-69
2022/03/07 05:57:35;;;;;;;14.90;3.92;;;27.00;99.90;;;;;;5013653;28;20018;-80
2022/03/07 06:00:06;;;;;;;21.70;4.05;;;26.90;99.90;;;;;;5013123;28;20041;-81
2022/03/07 06:02:34;;;;;;;20.52;3.90;;;26.80;99.90;;;;;;5012321;28;20095;-71
2022/03/07 06:05:02;;;;;;;23.40;4.07;;;26.70;99.90;;;;;;5013273;28;20054;-68
2022/03/07 06:07:30;;;;;;;24.70;4.38;;;26.50;99.90;;;;;;5013907;28;20052;-68
2022/03/07 06:09:57;;;;;;;23.15;4.07;;;26.40;99.90;;;;;;5010575;28;20050;-80
2022/03/07 06:12:27;;;;;;;18.48;4.40;;;26.30;99.90;;;;;;5014638;28;20053;-70
2022/03/07 06:14:55;;;;;;;24.38;4.65;;;26.30;99.90;;;;;;5013321;28;20543;-66
2022/03/07 06:17:22;;;;;;;22.52;4.13;;;26.20;99.90;;;;;;5012607;28;20058;-70
2022/03/07 06:19:53;;;;;;;22.05;4.10;;;26.10;99.90;;;;;;5012111;28;20513;-76
2022/03/07 06:22:22;;;;;;;29.77;4.13;;;26.00;99.90;;;;;;5011439;28;20053;-71
2022/03/07 06:24:50;;;;;;;23.92;4.28;;;26.00;99.90;;;;;;5011517;28;20022;-69
2022/03/07 06:27:18;;;;;;;23.05;5.13;;;25.80;99.90;;;;;;5011691;28;20028;-70
2022/03/07 06:29:45;;;;;;;24.65;4.43;;;25.70;99.90;;;;;;5011436;28;20026;-72
2022/03/07 06:32:12;;;;;;;20.48;4.20;;;25.70;99.90;;;;;;5012305;28;20374;-69
2022/03/07 06:34:41;;;;;;;22.80;3.50;;;25.60;99.90;;;;;;5011578;28;20025;-73
2022/03/07 06:37:09;;;;;;;25.48;4.47;;;25.60;99.90;;;;;;5011524;28;20464;-68
2022/03/07 06:39:36;;;;;;;25.63;4.05;;;25.50;99.90;;;;;;5010909;28;20033;-71
2022/03/07 06:42:06;;;;;;;26.05;4.50;;;25.50;99.90;;;;;;5011037;28;20545;-68
2022/03/07 06:44:33;;;;;;;27.30;5.10;;;25.50;99.90;;;;;;5011858;28;20030;-76
2022/03/07 06:47:01;;;;;;;22.50;3.50;;;25.40;99.90;;;;;;5010759;28;20477;-72
2022/03/07 06:49:28;;;;;;;22.17;3.90;;;25.40;99.90;;;;;;5011074;28;20105;-68
2022/03/07 06:51:55;;;;;;;25.10;4.57;;;25.40;99.90;;;;;;5011706;28;20026;-69
2022/03/07 06:54:23;;;;;;;22.13;3.78;;;25.40;99.90;;;;;;5010271;28;20022;-68
2022/03/07 06:56:50;;;;;;;23.90;5.93;;;25.30;99.90;;;;;;5010580;28;20022;-68
2022/03/07 06:59:18;;;;;;;21.23;4.20;;;25.30;99.90;;;;;;5009677;28;20034;-69
2022/03/07 07:01:45;;;;;;;24.02;4.10;;;25.20;99.90;;;;;;5009785;28;20390;-69
2022/03/07 07:04:12;;;;;;;23.60;4.40;;;25.10;99.90;;;;;;5009779;28;20037;-73
2022/03/07 07:06:40;;;;;;;22.33;4.95;;;25.10;99.90;;;;;;5010216;28;20030;-69
2022/03/07 07:09:07;;;;;;;27.23;6.00;;;25.00;99.90;;;;;;5009890;28;20045;-71
2022/03/07 07:11:36;;;;;;;29.25;6.05;;;24.90;99.90;;;;;;5010458;28;20096;-67
2022/03/07 07:14:03;;;;;;;25.00;5.22;;;24.80;99.90;;;;;;5010565;28;20112;-71
2022/03/07 07:16:31;;;;;;;25.80;6.07;;;24.80;99.90;;;;;;5010653;28;20555;-69
2022/03/07 07:18:58;;;;;;;21.60;4.82;;;24.80;99.90;;;;;;5008753;28;20029;-69
2022/03/07 07:21:25;;;;;;;25.48;6.38;;;24.70;99.90;;;;;;5010107;28;20402;-69
2022/03/07 07:23:52;;;;;;;34.75;5.90;;;24.60;99.90;;;;;;5010549;28;20034;-69
2022/03/07 07:26:20;;;;;;;30.80;5.38;;;24.50;99.90;;;;;;5010610;28;20645;-68
2022/03/07 07:28:47;;;;;;;28.52;5.32;;;24.50;99.90;;;;;;5010615;28;20113;-75
2022/03/07 07:31:14;;;;;;;24.15;5.63;;;24.50;99.90;;;;;;5010041;28;20060;-68
2022/03/07 07:33:41;;;;;;;34.40;6.57;;;24.40;99.90;;;;;;5010095;28;20029;-70
2022/03/07 07:36:09;;;;;;;31.52;7.13;;;24.40;99.90;;;;;;5009916;28;20181;-72
2022/03/07 07:38:36;;;;;;;21.27;6.82;;;24.30;99.90;;;;;;5009857;28;20014;-73
2022/03/07 07:41:03;;;;;;;17.17;4.65;;;24.30;99.90;;;;;;5010053;28;20083;-68
2022/03/07 07:43:31;;;;;;;19.23;5.45;;;24.40;99.90;;;;;;5010051;28;20022;-70
2022/03/07 07:45:58;;;;;;;20.33;4.45;;;24.40;99.90;;;;;;5009361;28;20064;-70
2022/03/07 07:48:25;;;;;;;14.85;3.78;;;24.20;99.90;;;;;;5010193;28;20033;-71
2022/03/07 07:50:53;;;;;;;19.60;5.80;;;24.10;99.90;;;;;;5008912;28;20072;-70
2022/03/07 07:53:20;;;;;;;16.88;4.47;;;23.90;99.90;;;;;;5010439;28;20156;-70
2022/03/07 07:55:47;;;;;;;13.77;4.13;;;23.80;99.90;;;;;;5010803;28;20022;-71
2022/03/07 07:58:14;;;;;;;17.67;3.53;;;23.70;99.90;;;;;;5010825;28;20386;-69
2022/03/07 08:00:42;;;;;;;14.18;3.15;;;23.70;99.90;;;;;;5010886;28;20036;-68
2022/03/07 08:03:09;;;;;;;12.70;2.45;;;23.70;99.90;;;;;;5011115;28;20520;-69
2022/03/07 08:05:36;;;;;;;14.20;2.78;;;23.60;99.90;;;;;;5010793;28;20033;-70
2022/03/07 08:08:04;;;;;;;13.27;2.95;;;23.40;99.90;;;;;;5010571;28;20505;-70
2022/03/07 08:10:31;;;;;;;11.82;3.35;;;23.20;99.90;;;;;;5003363;28;20482;-72
2022/03/07 08:12:59;;;;;;;12.18;2.83;;;23.20;99.90;;;;;;5010530;28;20470;-73
2022/03/07 08:15:29;;;;;;;8.57;2.42;;;23.20;99.90;;;;;;5009408;28;20525;-74
2022/03/07 08:17:56;;;;;;;10.02;2.08;;;23.10;99.90;;;;;;5013117;28;20030;-67
2022/03/07 08:20:24;;;;;;;5.05;2.33;;;23.00;99.90;;;;;;5013397;28;20398;-68
2022/03/07 08:22:52;;;;;;;7.90;2.58;;;23.00;99.90;;;;;;5014566;28;20018;-69
2022/03/07 08:25:23;;;;;;;9.13;2.50;;;23.00;99.90;;;;;;5014452;28;20109;-71
2022/03/07 08:27:50;;;;;;;10.90;2.22;;;23.00;99.90;;;;;;5014632;28;20021;-69
2022/03/07 08:30:21;;;;;;;11.10;2.83;;;23.10;99.90;;;;;;5014042;28;20028;-69
2022/03/07 08:32:50;;;;;;;10.23;2.50;;;23.10;99.90;;;;;;5014525;28;20022;-68
2022/03/07 08:35:20;;;;;;;15.75;2.78;;;23.10;99.90;;;;;;5013995;28;20040;-71
2022/03/07 08:37:50;;;;;;;10.73;2.97;;;23.20;99.90;;;;;;5013859;28;20034;-82
2022/03/07 08:40:24;;;;;;;11.00;2.70;;;23.20;99.90;;;;;;5013249;28;20100;-73
2022/03/07 08:42:58;;;;;;;10.82;2.92;;;23.20;99.90;;;;;;5013803;28;20084;-75
2022/03/07 08:45:26;;;;;;;7.20;2.30;;;23.20;99.90;;;;;;5014098;28;20030;-72
2022/03/07 08:47:55;;;;;;;10.68;2.92;;;23.30;99.90;;;;;;5015964;28;20462;-67
2022/03/07 08:50:23;;;;;;;10.65;3.72;;;23.30;99.90;;;;;;5013961;28;20378;-73
2022/03/07 08:52:50;;;;;;;10.48;4.50;;;23.30;99.90;;;;;;5013262;28;20025;-69
2022/03/07 08:55:17;;;;;;;7.85;3.72;;;23.30;99.90;;;;;;5013666;28;20080;-68
2022/03/07 08:57:45;;;;;;;12.27;4.95;;;23.30;99.90;;;;;;5014167;28;20049;-71
2022/03/07 09:00:16;;;;;;;12.25;3.13;;;23.30;99.90;;;;;;5013526;28;20103;-74
2022/03/07 09:02:45;;;;;;;8.30;2.95;;;23.30;99.90;;;;;;5014041;28;20044;-69
2022/03/07 09:05:13;;;;;;;10.18;2.78;;;23.40;99.90;;;;;;5012940;28;20584;-76
2022/03/07 09:07:40;;;;;;;11.45;3.65;;;23.30;99.90;;;;;;5012341;28;20867;-72
2022/03/07 09:10:08;;;;;;;10.68;2.42;;;23.30;99.90;;;;;;5012109;28;20029;-73
2022/03/07 09:12:38;;;;;;;12.65;3.60;;;23.40;99.90;;;;;;5012687;28;20109;-75
2022/03/07 09:15:10;;;;;;;9.85;2.45;;;23.30;99.90;;;;;;5013246;28;20054;-75
2022/03/07 09:17:37;;;;;;;8.85;2.45;;;23.40;99.90;;;;;;5011867;28;20026;-75
2022/03/07 09:20:05;;;;;;;9.27;2.60;;;23.40;99.90;;;;;;5011313;28;20037;-72
2022/03/07 09:22:33;;;;;;;6.47;2.17;;;23.40;99.90;;;;;;5013203;28;20050;-76
2022/03/07 09:25:05;;;;;;;11.88;2.70;;;23.40;99.90;;;;;;5013220;28;20026;-76
2022/03/07 09:27:35;;;;;;;11.75;3.00;;;23.40;99.90;;;;;;5010856;28;20026;-73
2022/03/07 09:30:04;;;;;;;10.45;2.70;;;23.40;99.90;;;;;;5011464;28;20413;-71
2022/03/07 09:32:31;;;;;;;13.55;3.53;;;23.40;99.90;;;;;;5012942;28;20033;-71
2022/03/07 09:34:59;;;;;;;8.93;3.25;;;23.40;99.90;;;;;;5011583;28;20041;-75
2022/03/07 09:37:28;;;;;;;7.25;3.35;;;23.40;99.90;;;;;;5012969;28;20045;-73
2022/03/07 09:39:55;;;;;;;9.88;3.33;;;23.40;99.90;;;;;;5011701;28;20117;-73
2022/03/07 09:42:23;;;;;;;8.73;3.20;;;23.30;99.90;;;;;;5013090;28;20037;-72
2022/03/07 09:44:52;;;;;;;7.63;3.35;;;23.30;99.90;;;;;;5013236;28;20092;-78
2022/03/07 09:47:22;;;;;;;10.25;3.58;;;23.30;99.90;;;;;;5013086;28;20069;-69
2022/03/07 09:49:51;;;;;;;7.22;2.90;;;23.30;99.90;;;;;;5013281;28;20101;-73
2022/03/07 09:52:19;;;;;;;11.68;2.92;;;23.30;99.90;;;;;;5013048;28;20462;-70
2022/03/07 09:54:46;;;;;;;11.23;2.90;;;23.30;99.90;;;;;;5012444;28;20022;-71
2022/03/07 09:57:13;;;;;;;10.18;2.85;;;23.30;99.90;;;;;;5012971;28;20022;-70
2022/03/07 09:59:41;;;;;;;7.28;2.42;;;23.30;99.90;;;;;;5012901;28;20044;-70
2022/03/07 10:02:12;;;;;;;5.65;2.33;;;23.20;99.90;;;;;;5011389;28;20026;-73
2022/03/07 10:04:46;;;;;;;4.63;2.17;;;23.30;99.90;;;;;;5012933;28;20501;-69
2022/03/07 10:07:14;;;;;;;6.53;2.25;;;23.30;99.90;;;;;;5011233;28;20022;-79
2022/03/07 10:09:41;;;;;;;6.20;2.00;;;23.20;99.90;;;;;;5010069;28;20418;-71
2022/03/07 10:12:09;;;;;;;6.40;2.90;;;23.20;99.90;;;;;;5013024;28;20029;-72
2022/03/07 10:14:45;;;;;;;6.22;2.05;;;23.20;99.90;;;;;;5012541;28;20026;-76
2022/03/07 10:17:20;;;;;;;6.05;2.25;;;23.20;99.90;;;;;;5012739;28;20032;-72
2022/03/07 10:19:49;;;;;;;7.45;3.25;;;23.20;99.90;;;;;;5012914;28;20866;-70
2022/03/07 10:22:22;;;;;;;5.85;2.40;;;23.20;99.90;;;;;;5012408;28;20109;-70
2022/03/07 10:25:03;;;;;;;5.70;2.67;;;23.20;99.90;;;;;;5012695;28;20026;-77
2022/03/07 10:27:33;;;;;;;4.72;2.50;;;23.20;99.90;;;;;;5012946;28;20022;-74
2022/03/07 10:30:01;;;;;;;5.70;2.10;;;23.20;99.90;;;;;;5013071;28;20522;-70
2022/03/07 10:32:28;;;;;;;6.28;2.13;;;23.20;99.90;;;;;;5012448;28;20382;-71
2022/03/07 10:34:56;;;;;;;4.07;2.38;;;23.30;99.90;;;;;;5012572;28;20363;-74
2022/03/07 10:37:38;;;;;;;4.97;2.20;;;23.30;99.90;;;;;;5012651;28;20021;-71
2022/03/07 10:40:18;;;;;;;;;;;23.30;99.90;;;;;;5012800;28;20030;-71
2022/03/07 10:42:47;;;;;;;5.80;1.73;;;23.30;99.90;;;;;;5012645;28;19909;-75
2022/03/07 10:45:14;;;;;;;5.10;2.40;;;23.30;99.90;;;;;;5012572;28;20462;-71
2022/03/07 10:47:42;;;;;;;5.68;2.30;;;23.30;99.90;;;;;;5012560;28;20042;-69
2022/03/07 10:50:10;;;;;;;8.65;2.55;;;23.30;99.90;;;;;;5012532;28;20097;-71
2022/03/07 10:52:42;;;;;;;10.82;3.22;;;23.40;99.90;;;;;;5011896;28;20100;-71
2022/03/07 10:55:10;;;;;;;;;;;23.30;99.90;;;;;;5012839;28;20047;-73
2022/03/07 10:57:40;;;;;;;5.13;2.03;;;23.30;99.90;;;;;;5010700;28;19901;-70
2022/03/07 11:00:10;;;;;;;4.90;1.85;;;23.30;99.90;;;;;;5011539;28;20084;-74
2022/03/07 11:02:49;;;;;;;3.63;1.80;;;23.30;99.90;;;;;;5011252;28;20022;-74
2022/03/07 11:05:18;;;;;;;3.80;1.60;;;23.30;99.90;;;;;;5009771;28;20105;-74
2022/03/07 11:07:52;;;;;;;4.00;1.58;;;23.30;99.90;;;;;;5010513;28;20374;-72
2022/03/07 11:10:19;;;;;;;4.63;1.10;;;23.20;99.90;;;;;;5010803;28;20030;-76
2022/03/07 11:12:46;;;;;;;3.22;1.05;;;23.20;99.90;;;;;;5011129;28;20041;-71
2022/03/07 11:15:18;;;;;;;1.98;0.98;;;23.10;99.90;;;;;;5011047;28;20125;-73
2022/03/07 11:17:47;;;;;;;4.20;1.23;;;23.00;99.90;;;;;;5010881;28;20030;-68
2022/03/07 11:20:17;;;;;;;1.40;0.90;;;23.00;99.90;;;;;;5010438;28;20477;-69
2022/03/07 11:22:45;;;;;;;2.35;0.98;;;22.90;99.90;;;;;;5010565;28;20080;-71
2022/03/07 11:25:16;;;;;;;2.53;1.20;;;22.90;99.90;;;;;;5010747;28;20022;-68
2022/03/07 11:27:44;;;;;;;3.00;1.10;;;22.80;99.90;;;;;;5010741;28;20020;-69
2022/03/07 11:30:21;;;;;;;3.63;1.42;;;22.80;99.90;;;;;;5010947;28;20028;-70
2022/03/07 11:32:52;;;;;;;3.10;1.23;;;22.80;99.90;;;;;;5010583;28;20417;-70
2022/03/07 11:35:33;;;;;;;2.47;0.88;;;22.90;99.90;;;;;;5010607;28;20015;-67
2022/03/07 11:38:15;;;;;;;4.57;1.50;;;22.90;99.90;;;;;;5010614;28;20022;-68
2022/03/07 11:41:15;;;;;;;5.10;1.65;;;22.90;99.90;;;;;;5010762;28;20037;-71
2022/03/07 11:43:59;;;;;;;5.45;2.28;;;22.90;99.90;;;;;;4998310;28;20083;-69
2022/03/07 11:46:32;;;;;;;4.68;1.60;;;22.90;99.90;;;;;;5010668;28;20106;-68
2022/03/07 11:49:03;;;;;;;4.13;1.30;;;22.90;99.90;;;;;;5009596;28;20041;-69
2022/03/07 11:51:32;;;;;;;2.80;1.25;;;22.90;99.90;;;;;;5012348;28;20101;-71
2022/03/07 11:54:00;;;;;;;5.97;1.40;;;22.90;99.90;;;;;;5014417;28;20026;-69
2022/03/07 11:56:29;;;;;;;3.33;1.20;;;22.90;99.90;;;;;;5014402;28;20022;-71
2022/03/07 11:58:58;;;;;;;3.58;1.30;;;22.70;99.90;;;;;;5014438;28;20404;-69
2022/03/07 12:01:27;;;;;;;5.05;1.40;;;22.70;99.90;;;;;;5014861;28;20022;-71
2022/03/07 12:03:54;;;;;;;6.82;2.42;;;22.70;99.90;;;;;;5012925;28;20127;-68
2022/03/07 12:06:23;;;;;;;4.45;1.65;;;22.60;99.90;;;;;;5013936;28;20053;-71
2022/03/07 12:09:00;;;;;;;4.95;1.52;;;22.60;99.90;;;;;;5014030;28;20054;-68
2022/03/07 12:11:31;;;;;;;6.47;1.65;;;22.50;99.90;;;;;;5014617;28;20021;-70
2022/03/07 12:14:09;;;;;;;6.28;1.90;;;22.60;99.90;;;;;;5014417;28;20466;-70
2022/03/07 12:16:41;;;;;;;6.28;1.95;;;22.60;99.90;;;;;;5013777;28;20057;-70
2022/03/07 12:19:14;;;;;;;5.25;1.88;;;22.60;99.90;;;;;;5013952;28;20030;-72
2022/03/07 12:21:43;;;;;;;9.18;2.03;;;22.60;99.90;;;;;;5013520;28;20033;-73
2022/03/07 12:24:14;;;;;;;7.78;1.95;;;22.60;99.90;;;;;;5014589;28;20643;-73
2022/03/07 12:26:51;;;;;;;6.80;2.03;;;22.60;99.90;;;;;;5014852;28;20017;-71
2022/03/07 12:29:20;;;;;;;5.07;1.92;;;22.60;99.90;;;;;;5014107;28;20545;-70
2022/03/07 12:31:54;;;;;;;5.75;2.28;;;22.50;99.90;;;;;;5013937;28;20030;-72
2022/03/07 12:34:29;;;;;;;5.43;1.88;;;22.60;99.90;;;;;;5013695;28;20018;-70
2022/03/07 12:37:10;;;;;;;4.70;1.88;;;22.50;99.90;;;;;;5013528;28;20022;-70
2022/03/07 12:39:49;;;;;;;4.95;1.95;;;22.40;99.90;;;;;;5013218;28;20034;-70
2022/03/07 12:42:20;;;;;;;3.20;1.30;;;22.40;99.90;;;;;;5012160;28;20112;-70
2022/03/07 12:44:47;;;;;;;4.35;1.88;;;22.50;99.90;;;;;;5012121;28;20113;-70
2022/03/07 12:47:17;;;;;;;4.80;2.38;;;22.50;99.90;;;;;;5013074;28;20097;-69
2022/03/07 12:49:50;;;;;;;7.60;2.17;;;22.40;99.90;;;;;;5013259;28;20046;-70